sensor_id;sensor_type;location;lat;lon;timestamp;P1;durP1;ratioP1;P2;durP2;ratioP2
9080;SDS011;13509;50.760;6.080;2022-08-19T00:01:24;14.80;;;12.07;;
9080;SDS011;13509;50.760;6.080;2022-08-19T00:03:57;15.30;;;13.80;;
9080;SDS011;13509;50.760;6.080;2022-08-19T00:06:25;17.50;;;15.20;;
9080;SDS011;13509;50.760;6.080;2022-08-19T00:08:54;15.43;;;13.87;;
9080;SDS011;13509;50.760;6.080;2022-08-19T00:11:22;16.53;;;14.77;;
9080;SDS011;13509;50.760;6.080;2022-08-19T00:13:53;19.80;;;15.27;;
9080;SDS011;13509;50.760;6.080;2022-08-19T00:16:24;15.63;;;14.13;;
9080;SDS011;13509;50.760;6.080;2022-08-19T00:18:53;17.47;;;15.73;;
9080;SDS011;13509;50.760;6.080;2022-08-19T00:21:22;18.40;;;14.73;;
9080;SDS011;13509;50.760;6.080;2022-08-19T00:23:50;16.73;;;14.87;;
9080;SDS011;13509;50.760;6.080;2022-08-19T00:26:18;17.77;;;15.93;;
9080;SDS011;13509;50.760;6.080;2022-08-19T00:28:47;17.87;;;16.17;;
9080;SDS011;13509;50.760;6.080;2022-08-19T00:31:15;16.40;;;14.87;;
9080;SDS011;13509;50.760;6.080;2022-08-19T00:33:45;17.33;;;15.33;;
9080;SDS011;13509;50.760;6.080;2022-08-19T00:36:13;17.40;;;15.60;;
9080;SDS011;13509;50.760;6.080;2022-08-19T00:38:42;16.93;;;15.23;;
9080;SDS011;13509;50.760;6.080;2022-08-19T00:41:12;16.70;;;15.10;;
9080;SDS011;13509;50.760;6.080;2022-08-19T00:43:40;17.03;;;15.33;;
9080;SDS011;13509;50.760;6.080;2022-08-19T00:46:08;17.63;;;15.73;;
9080;SDS011;13509;50.760;6.080;2022-08-19T00:48:37;17.27;;;15.50;;
9080;SDS011;13509;50.760;6.080;2022-08-19T00:51:06;19.03;;;17.13;;
9080;SDS011;13509;50.760;6.080;2022-08-19T00:53:34;19.47;;;15.87;;
9080;SDS011;13509;50.760;6.080;2022-08-19T00:56:03;16.63;;;14.93;;
9080;SDS011;13509;50.760;6.080;2022-08-19T00:58:33;18.53;;;16.40;;
9080;SDS011;13509;50.760;6.080;2022-08-19T01:01:02;18.73;;;15.47;;
9080;SDS011;13509;50.760;6.080;2022-08-19T01:03:31;16.90;;;15.30;;
9080;SDS011;13509;50.760;6.080;2022-08-19T01:06:21;18.17;;;16.17;;
9080;SDS011;13509;50.760;6.080;2022-08-19T01:08:49;16.43;;;14.83;;
9080;SDS011;13509;50.760;6.080;2022-08-19T01:11:17;18.20;;;16.40;;
9080;SDS011;13509;50.760;6.080;2022-08-19T01:13:46;19.93;;;16.90;;
9080;SDS011;13509;50.760;6.080;2022-08-19T01:16:16;20.47;;;16.73;;
9080;SDS011;13509;50.760;6.080;2022-08-19T01:18:45;17.17;;;15.47;;
9080;SDS011;13509;50.760;6.080;2022-08-19T01:21:16;17.87;;;16.07;;
9080;SDS011;13509;50.760;6.080;2022-08-19T01:23:47;19.60;;;15.57;;
9080;SDS011;13509;50.760;6.080;2022-08-19T01:26:16;17.10;;;15.30;;
9080;SDS011;13509;50.760;6.080;2022-08-19T01:28:46;18.50;;;16.60;;
9080;SDS011;13509;50.760;6.080;2022-08-19T01:31:18;20.20;;;17.50;;
9080;SDS011;13509;50.760;6.080;2022-08-19T01:33:54;18.40;;;16.50;;
9080;SDS011;13509;50.760;6.080;2022-08-19T01:36:26;19.67;;;17.27;;
9080;SDS011;13509;50.760;6.080;2022-08-19T01:38:56;18.40;;;16.60;;
9080;SDS011;13509;50.760;6.080;2022-08-19T01:41:25;17.40;;;15.63;;
9080;SDS011;13509;50.760;6.080;2022-08-19T01:43:54;18.27;;;16.43;;
9080;SDS011;13509;50.760;6.080;2022-08-19T01:46:42;19.13;;;17.03;;
9080;SDS011;13509;50.760;6.080;2022-08-19T01:49:11;19.23;;;16.70;;
9080;SDS011;13509;50.760;6.080;2022-08-19T01:51:39;18.30;;;16.17;;
9080;SDS011;13509;50.760;6.080;2022-08-19T01:54:09;18.80;;;16.90;;
9080;SDS011;13509;50.760;6.080;2022-08-19T01:56:37;19.40;;;16.03;;
9080;SDS011;13509;50.760;6.080;2022-08-19T01:59:08;17.43;;;15.63;;
9080;SDS011;13509;50.760;6.080;2022-08-19T02:01:36;19.20;;;16.43;;
9080;SDS011;13509;50.760;6.080;2022-08-19T02:04:05;17.63;;;15.83;;
9080;SDS011;13509;50.760;6.080;2022-08-19T02:06:33;17.77;;;15.87;;
9080;SDS011;13509;50.760;6.080;2022-08-19T02:09:03;18.93;;;16.93;;
9080;SDS011;13509;50.760;6.080;2022-08-19T02:11:34;19.77;;;17.43;;
9080;SDS011;13509;50.760;6.080;2022-08-19T02:14:04;18.93;;;16.67;;
9080;SDS011;13509;50.760;6.080;2022-08-19T02:16:33;18.63;;;16.73;;
9080;SDS011;13509;50.760;6.080;2022-08-19T02:19:02;19.73;;;17.80;;
9080;SDS011;13509;50.760;6.080;2022-08-19T02:21:30;17.93;;;16.03;;
9080;SDS011;13509;50.760;6.080;2022-08-19T02:23:58;19.63;;;17.50;;
9080;SDS011;13509;50.760;6.080;2022-08-19T02:26:27;20.43;;;17.73;;
9080;SDS011;13509;50.760;6.080;2022-08-19T02:28:56;19.87;;;17.80;;
9080;SDS011;13509;50.760;6.080;2022-08-19T02:31:25;19.00;;;17.00;;
9080;SDS011;13509;50.760;6.080;2022-08-19T02:33:54;19.43;;;16.70;;
9080;SDS011;13509;50.760;6.080;2022-08-19T02:36:23;20.30;;;18.17;;
9080;SDS011;13509;50.760;6.080;2022-08-19T02:38:51;22.77;;;17.63;;
9080;SDS011;13509;50.760;6.080;2022-08-19T02:41:22;21.30;;;19.10;;
9080;SDS011;13509;50.760;6.080;2022-08-19T02:43:52;22.30;;;19.07;;
9080;SDS011;13509;50.760;6.080;2022-08-19T02:46:42;22.67;;;20.17;;
9080;SDS011;13509;50.760;6.080;2022-08-19T02:49:10;27.60;;;22.07;;
9080;SDS011;13509;50.760;6.080;2022-08-19T02:51:40;27.27;;;21.60;;
9080;SDS011;13509;50.760;6.080;2022-08-19T02:54:09;25.90;;;21.23;;
9080;SDS011;13509;50.760;6.080;2022-08-19T02:56:39;23.80;;;21.27;;
9080;SDS011;13509;50.760;6.080;2022-08-19T02:59:08;23.43;;;20.73;;
9080;SDS011;13509;50.760;6.080;2022-08-19T03:01:39;24.13;;;21.53;;
9080;SDS011;13509;50.760;6.080;2022-08-19T03:04:10;23.97;;;20.47;;
9080;SDS011;13509;50.760;6.080;2022-08-19T03:06:40;24.73;;;21.07;;
9080;SDS011;13509;50.760;6.080;2022-08-19T03:09:09;24.07;;;20.20;;
9080;SDS011;13509;50.760;6.080;2022-08-19T03:11:37;26.60;;;21.23;;
9080;SDS011;13509;50.760;6.080;2022-08-19T03:14:06;25.03;;;22.17;;
9080;SDS011;13509;50.760;6.080;2022-08-19T03:16:40;24.03;;;21.00;;
9080;SDS011;13509;50.760;6.080;2022-08-19T03:19:09;25.80;;;21.07;;
9080;SDS011;13509;50.760;6.080;2022-08-19T03:21:38;25.40;;;21.73;;
9080;SDS011;13509;50.760;6.080;2022-08-19T03:24:07;25.77;;;22.63;;
9080;SDS011;13509;50.760;6.080;2022-08-19T03:26:38;24.73;;;22.13;;
9080;SDS011;13509;50.760;6.080;2022-08-19T03:29:06;24.97;;;22.27;;
9080;SDS011;13509;50.760;6.080;2022-08-19T03:31:38;24.37;;;21.70;;
9080;SDS011;13509;50.760;6.080;2022-08-19T03:34:19;24.40;;;21.70;;
9080;SDS011;13509;50.760;6.080;2022-08-19T03:36:48;30.03;;;23.70;;
9080;SDS011;13509;50.760;6.080;2022-08-19T03:39:16;38.87;;;30.53;;
9080;SDS011;13509;50.760;6.080;2022-08-19T03:41:46;44.63;;;32.67;;
9080;SDS011;13509;50.760;6.080;2022-08-19T03:44:35;47.53;;;37.70;;
9080;SDS011;13509;50.760;6.080;2022-08-19T03:47:04;54.40;;;38.90;;
9080;SDS011;13509;50.760;6.080;2022-08-19T03:49:34;54.20;;;38.73;;
9080;SDS011;13509;50.760;6.080;2022-08-19T03:52:03;57.73;;;40.73;;
9080;SDS011;13509;50.760;6.080;2022-08-19T03:54:33;56.57;;;38.97;;
9080;SDS011;13509;50.760;6.080;2022-08-19T03:57:02;54.03;;;40.00;;
9080;SDS011;13509;50.760;6.080;2022-08-19T03:59:32;57.17;;;40.80;;
9080;SDS011;13509;50.760;6.080;2022-08-19T04:02:02;60.73;;;42.17;;
9080;SDS011;13509;50.760;6.080;2022-08-19T04:04:36;55.83;;;40.30;;
9080;SDS011;13509;50.760;6.080;2022-08-19T04:07:04;58.10;;;40.93;;
9080;SDS011;13509;50.760;6.080;2022-08-19T04:09:33;65.60;;;43.57;;
9080;SDS011;13509;50.760;6.080;2022-08-19T04:12:02;58.43;;;40.47;;
9080;SDS011;13509;50.760;6.080;2022-08-19T04:14:32;55.70;;;40.20;;
9080;SDS011;13509;50.760;6.080;2022-08-19T04:17:01;66.87;;;44.40;;
9080;SDS011;13509;50.760;6.080;2022-08-19T04:19:31;66.83;;;43.20;;
9080;SDS011;13509;50.760;6.080;2022-08-19T04:22:01;66.57;;;44.07;;
9080;SDS011;13509;50.760;6.080;2022-08-19T04:24:30;66.20;;;44.50;;
9080;SDS011;13509;50.760;6.080;2022-08-19T04:26:59;68.53;;;42.97;;
9080;SDS011;13509;50.760;6.080;2022-08-19T04:29:28;74.03;;;45.10;;
9080;SDS011;13509;50.760;6.080;2022-08-19T04:31:57;72.17;;;43.73;;
9080;SDS011;13509;50.760;6.080;2022-08-19T04:34:34;71.53;;;45.03;;
9080;SDS011;13509;50.760;6.080;2022-08-19T04:37:24;73.47;;;43.63;;
9080;SDS011;13509;50.760;6.080;2022-08-19T04:40:00;79.37;;;45.73;;
9080;SDS011;13509;50.760;6.080;2022-08-19T04:42:46;80.17;;;46.30;;
9080;SDS011;13509;50.760;6.080;2022-08-19T04:45:14;82.23;;;45.10;;
9080;SDS011;13509;50.760;6.080;2022-08-19T04:47:43;85.80;;;48.27;;
9080;SDS011;13509;50.760;6.080;2022-08-19T04:50:23;82.13;;;46.10;;
9080;SDS011;13509;50.760;6.080;2022-08-19T04:52:53;88.00;;;46.87;;
9080;SDS011;13509;50.760;6.080;2022-08-19T04:55:23;83.90;;;48.87;;
9080;SDS011;13509;50.760;6.080;2022-08-19T04:57:52;87.43;;;48.80;;
9080;SDS011;13509;50.760;6.080;2022-08-19T05:00:20;84.33;;;47.70;;
9080;SDS011;13509;50.760;6.080;2022-08-19T05:02:49;90.00;;;48.23;;
9080;SDS011;13509;50.760;6.080;2022-08-19T05:05:17;85.00;;;46.60;;
9080;SDS011;13509;50.760;6.080;2022-08-19T05:07:47;85.40;;;45.47;;
9080;SDS011;13509;50.760;6.080;2022-08-19T05:10:16;78.80;;;45.20;;
9080;SDS011;13509;50.760;6.080;2022-08-19T05:12:45;79.23;;;44.87;;
9080;SDS011;13509;50.760;6.080;2022-08-19T05:15:13;81.20;;;45.33;;
9080;SDS011;13509;50.760;6.080;2022-08-19T05:17:41;74.83;;;43.23;;
9080;SDS011;13509;50.760;6.080;2022-08-19T05:20:29;82.97;;;43.97;;
9080;SDS011;13509;50.760;6.080;2022-08-19T05:23:15;74.60;;;43.70;;
9080;SDS011;13509;50.760;6.080;2022-08-19T05:25:49;78.57;;;45.83;;
9080;SDS011;13509;50.760;6.080;2022-08-19T05:28:18;71.80;;;43.40;;
9080;SDS011;13509;50.760;6.080;2022-08-19T05:30:46;67.57;;;41.63;;
9080;SDS011;13509;50.760;6.080;2022-08-19T05:33:17;65.40;;;41.13;;
9080;SDS011;13509;50.760;6.080;2022-08-19T05:35:45;61.87;;;39.87;;
9080;SDS011;13509;50.760;6.080;2022-08-19T05:38:14;58.97;;;38.90;;
9080;SDS011;13509;50.760;6.080;2022-08-19T05:40:43;52.47;;;36.50;;
9080;SDS011;13509;50.760;6.080;2022-08-19T05:43:14;47.73;;;34.20;;
9080;SDS011;13509;50.760;6.080;2022-08-19T05:45:42;47.57;;;33.53;;
9080;SDS011;13509;50.760;6.080;2022-08-19T05:48:11;46.27;;;33.70;;
9080;SDS011;13509;50.760;6.080;2022-08-19T05:50:40;41.50;;;31.30;;
9080;SDS011;13509;50.760;6.080;2022-08-19T05:53:09;43.03;;;31.13;;
9080;SDS011;13509;50.760;6.080;2022-08-19T05:55:38;39.53;;;31.13;;
9080;SDS011;13509;50.760;6.080;2022-08-19T05:58:06;40.37;;;30.30;;
9080;SDS011;13509;50.760;6.080;2022-08-19T06:00:36;38.10;;;30.00;;
9080;SDS011;13509;50.760;6.080;2022-08-19T06:03:06;37.90;;;27.47;;
9080;SDS011;13509;50.760;6.080;2022-08-19T06:05:38;31.53;;;26.03;;
9080;SDS011;13509;50.760;6.080;2022-08-19T06:08:17;36.50;;;29.33;;
9080;SDS011;13509;50.760;6.080;2022-08-19T06:10:59;39.70;;;28.40;;
9080;SDS011;13509;50.760;6.080;2022-08-19T06:13:39;31.60;;;27.53;;
9080;SDS011;13509;50.760;6.080;2022-08-19T06:16:08;36.30;;;27.57;;
9080;SDS011;13509;50.760;6.080;2022-08-19T06:18:37;33.00;;;26.43;;
9080;SDS011;13509;50.760;6.080;2022-08-19T06:21:05;32.10;;;25.90;;
9080;SDS011;13509;50.760;6.080;2022-08-19T06:23:33;30.97;;;26.13;;
9080;SDS011;13509;50.760;6.080;2022-08-19T06:26:01;31.87;;;26.57;;
9080;SDS011;13509;50.760;6.080;2022-08-19T06:28:30;34.77;;;26.03;;
9080;SDS011;13509;50.760;6.080;2022-08-19T06:30:59;30.10;;;24.33;;
9080;SDS011;13509;50.760;6.080;2022-08-19T06:33:29;26.87;;;23.60;;
9080;SDS011;13509;50.760;6.080;2022-08-19T06:35:57;26.37;;;22.83;;
9080;SDS011;13509;50.760;6.080;2022-08-19T06:38:25;24.23;;;21.60;;
9080;SDS011;13509;50.760;6.080;2022-08-19T06:40:59;26.73;;;22.97;;
9080;SDS011;13509;50.760;6.080;2022-08-19T06:43:32;28.27;;;21.80;;
9080;SDS011;13509;50.760;6.080;2022-08-19T06:46:09;24.50;;;21.70;;
9080;SDS011;13509;50.760;6.080;2022-08-19T06:48:41;27.27;;;22.93;;
9080;SDS011;13509;50.760;6.080;2022-08-19T06:51:11;24.90;;;21.03;;
9080;SDS011;13509;50.760;6.080;2022-08-19T06:53:44;25.00;;;21.23;;
9080;SDS011;13509;50.760;6.080;2022-08-19T06:56:14;22.02;;;19.65;;
9080;SDS011;13509;50.760;6.080;2022-08-19T06:58:42;20.23;;;18.20;;
9080;SDS011;13509;50.760;6.080;2022-08-19T07:01:11;22.88;;;20.30;;
9080;SDS011;13509;50.760;6.080;2022-08-19T07:03:40;24.15;;;20.40;;
9080;SDS011;13509;50.760;6.080;2022-08-19T07:06:09;22.33;;;19.93;;
9080;SDS011;13509;50.760;6.080;2022-08-19T07:58:05;29.33;;;24.17;;
9080;SDS011;13509;50.760;6.080;2022-08-19T08:00:33;32.23;;;25.50;;
9080;SDS011;13509;50.760;6.080;2022-08-19T08:03:02;30.13;;;23.63;;
9080;SDS011;13509;50.760;6.080;2022-08-19T08:05:30;25.90;;;21.90;;
9080;SDS011;13509;50.760;6.080;2022-08-19T08:08:16;27.30;;;22.23;;
9080;SDS011;13509;50.760;6.080;2022-08-19T08:11:09;28.27;;;24.00;;
9080;SDS011;13509;50.760;6.080;2022-08-19T08:13:42;29.27;;;22.60;;
9080;SDS011;13509;50.760;6.080;2022-08-19T08:16:10;24.57;;;20.43;;
9080;SDS011;13509;50.760;6.080;2022-08-19T08:18:39;26.67;;;21.90;;
9080;SDS011;13509;50.760;6.080;2022-08-19T08:21:16;27.38;;;24.35;;
9080;SDS011;13509;50.760;6.080;2022-08-19T08:23:44;27.10;;;24.20;;
9080;SDS011;13509;50.760;6.080;2022-08-19T08:26:12;30.13;;;25.57;;
9080;SDS011;13509;50.760;6.080;2022-08-19T08:28:45;29.77;;;25.13;;
9080;SDS011;13509;50.760;6.080;2022-08-19T08:31:15;35.77;;;26.67;;
9080;SDS011;13509;50.760;6.080;2022-08-19T08:33:45;28.77;;;25.30;;
9080;SDS011;13509;50.760;6.080;2022-08-19T08:36:14;35.33;;;28.17;;
9080;SDS011;13509;50.760;6.080;2022-08-19T08:38:43;32.00;;;27.00;;
9080;SDS011;13509;50.760;6.080;2022-08-19T08:41:15;29.97;;;26.27;;
9080;SDS011;13509;50.760;6.080;2022-08-19T08:43:48;30.40;;;27.17;;
9080;SDS011;13509;50.760;6.080;2022-08-19T08:46:19;32.83;;;27.33;;
9080;SDS011;13509;50.760;6.080;2022-08-19T08:48:59;33.50;;;27.23;;
9080;SDS011;13509;50.760;6.080;2022-08-19T08:51:32;34.47;;;28.10;;
9080;SDS011;13509;50.760;6.080;2022-08-19T08:54:01;33.07;;;28.20;;
9080;SDS011;13509;50.760;6.080;2022-08-19T08:56:30;30.97;;;26.53;;
9080;SDS011;13509;50.760;6.080;2022-08-19T08:59:01;32.33;;;27.23;;
9080;SDS011;13509;50.760;6.080;2022-08-19T09:01:34;34.03;;;28.07;;
9080;SDS011;13509;50.760;6.080;2022-08-19T09:04:03;32.87;;;26.43;;
9080;SDS011;13509;50.760;6.080;2022-08-19T09:06:36;32.00;;;27.07;;
9080;SDS011;13509;50.760;6.080;2022-08-19T09:09:13;36.23;;;28.83;;
9080;SDS011;13509;50.760;6.080;2022-08-19T09:11:53;32.93;;;26.97;;
9080;SDS011;13509;50.760;6.080;2022-08-19T09:14:31;28.83;;;23.97;;
9080;SDS011;13509;50.760;6.080;2022-08-19T09:17:18;29.40;;;24.60;;
9080;SDS011;13509;50.760;6.080;2022-08-19T09:19:48;27.83;;;24.03;;
9080;SDS011;13509;50.760;6.080;2022-08-19T09:22:17;30.07;;;24.67;;
9080;SDS011;13509;50.760;6.080;2022-08-19T09:24:51;26.48;;;23.42;;
9080;SDS011;13509;50.760;6.080;2022-08-19T09:27:19;29.33;;;23.80;;
9080;SDS011;13509;50.760;6.080;2022-08-19T09:30:11;26.38;;;22.67;;
9080;SDS011;13509;50.760;6.080;2022-08-19T09:32:41;24.98;;;21.50;;
9080;SDS011;13509;50.760;6.080;2022-08-19T09:35:09;25.83;;;21.15;;
9080;SDS011;13509;50.760;6.080;2022-08-19T09:37:38;25.38;;;21.58;;
9080;SDS011;13509;50.760;6.080;2022-08-19T09:40:08;23.55;;;20.00;;
9080;SDS011;13509;50.760;6.080;2022-08-19T09:42:37;20.70;;;18.45;;
9080;SDS011;13509;50.760;6.080;2022-08-19T09:45:17;23.48;;;19.90;;
9080;SDS011;13509;50.760;6.080;2022-08-19T09:47:47;21.25;;;18.52;;
9080;SDS011;13509;50.760;6.080;2022-08-19T09:50:19;22.35;;;18.92;;
9080;SDS011;13509;50.760;6.080;2022-08-19T09:52:47;20.13;;;17.95;;
9080;SDS011;13509;50.760;6.080;2022-08-19T09:55:20;22.70;;;18.58;;
9080;SDS011;13509;50.760;6.080;2022-08-19T09:57:49;21.08;;;17.90;;
9080;SDS011;13509;50.760;6.080;2022-08-19T10:00:19;22.30;;;18.95;;
9080;SDS011;13509;50.760;6.080;2022-08-19T10:02:47;23.92;;;18.17;;
9080;SDS011;13509;50.760;6.080;2022-08-19T10:05:18;21.20;;;17.27;;
9080;SDS011;13509;50.760;6.080;2022-08-19T10:08:07;20.45;;;18.35;;
9080;SDS011;13509;50.760;6.080;2022-08-19T10:10:39;18.92;;;16.80;;
9080;SDS011;13509;50.760;6.080;2022-08-19T10:13:11;21.77;;;18.85;;
9080;SDS011;13509;50.760;6.080;2022-08-19T10:15:41;21.63;;;18.15;;
9080;SDS011;13509;50.760;6.080;2022-08-19T10:18:13;26.95;;;20.63;;
9080;SDS011;13509;50.760;6.080;2022-08-19T10:20:42;19.13;;;16.92;;
9080;SDS011;13509;50.760;6.080;2022-08-19T10:23:17;21.35;;;17.60;;
9080;SDS011;13509;50.760;6.080;2022-08-19T10:25:46;19.02;;;16.48;;
9080;SDS011;13509;50.760;6.080;2022-08-19T10:28:14;20.67;;;18.58;;
9080;SDS011;13509;50.760;6.080;2022-08-19T10:30:46;22.42;;;18.85;;
9080;SDS011;13509;50.760;6.080;2022-08-19T10:33:14;23.15;;;18.67;;
9080;SDS011;13509;50.760;6.080;2022-08-19T10:36:03;21.70;;;17.13;;
9080;SDS011;13509;50.760;6.080;2022-08-19T10:38:33;22.35;;;16.00;;
9080;SDS011;13509;50.760;6.080;2022-08-19T10:41:08;17.37;;;14.77;;
9080;SDS011;13509;50.760;6.080;2022-08-19T10:43:36;22.45;;;15.88;;
9080;SDS011;13509;50.760;6.080;2022-08-19T10:46:07;18.08;;;14.40;;
9080;SDS011;13509;50.760;6.080;2022-08-19T10:48:41;20.17;;;14.73;;
9080;SDS011;13509;50.760;6.080;2022-08-19T10:51:10;20.05;;;15.30;;
9080;SDS011;13509;50.760;6.080;2022-08-19T10:53:56;19.30;;;15.60;;
9080;SDS011;13509;50.760;6.080;2022-08-19T10:56:24;18.40;;;15.53;;
9080;SDS011;13509;50.760;6.080;2022-08-19T10:59:10;21.50;;;15.63;;
9080;SDS011;13509;50.760;6.080;2022-08-19T11:01:42;20.97;;;15.47;;
9080;SDS011;13509;50.760;6.080;2022-08-19T11:04:11;18.07;;;14.30;;
9080;SDS011;13509;50.760;6.080;2022-08-19T11:06:40;18.07;;;14.93;;
9080;SDS011;13509;50.760;6.080;2022-08-19T11:09:09;20.80;;;17.23;;
9080;SDS011;13509;50.760;6.080;2022-08-19T11:11:38;22.20;;;17.13;;
9080;SDS011;13509;50.760;6.080;2022-08-19T11:14:07;19.90;;;15.80;;
9080;SDS011;13509;50.760;6.080;2022-08-19T11:16:37;18.27;;;15.23;;
9080;SDS011;13509;50.760;6.080;2022-08-19T11:19:08;22.67;;;16.80;;
9080;SDS011;13509;50.760;6.080;2022-08-19T11:21:37;18.87;;;15.40;;
9080;SDS011;13509;50.760;6.080;2022-08-19T11:24:06;22.07;;;16.00;;
9080;SDS011;13509;50.760;6.080;2022-08-19T11:26:36;20.20;;;15.13;;
9080;SDS011;13509;50.760;6.080;2022-08-19T11:29:04;24.57;;;17.83;;
9080;SDS011;13509;50.760;6.080;2022-08-19T11:31:37;24.43;;;17.43;;
9080;SDS011;13509;50.760;6.080;2022-08-19T11:34:10;22.17;;;17.10;;
9080;SDS011;13509;50.760;6.080;2022-08-19T11:36:39;20.07;;;16.50;;
9080;SDS011;13509;50.760;6.080;2022-08-19T11:39:09;24.73;;;16.97;;
9080;SDS011;13509;50.760;6.080;2022-08-19T11:41:38;22.60;;;17.63;;
9080;SDS011;13509;50.760;6.080;2022-08-19T11:44:06;24.40;;;18.00;;
9080;SDS011;13509;50.760;6.080;2022-08-19T11:46:35;26.50;;;19.90;;
9080;SDS011;13509;50.760;6.080;2022-08-19T11:49:04;22.73;;;16.83;;
9080;SDS011;13509;50.760;6.080;2022-08-19T11:51:40;22.17;;;15.83;;
9080;SDS011;13509;50.760;6.080;2022-08-19T11:54:09;19.50;;;14.97;;
9080;SDS011;13509;50.760;6.080;2022-08-19T11:56:39;17.77;;;12.83;;
9080;SDS011;13509;50.760;6.080;2022-08-19T11:59:07;20.53;;;14.63;;
9080;SDS011;13509;50.760;6.080;2022-08-19T12:01:40;16.33;;;12.07;;
9080;SDS011;13509;50.760;6.080;2022-08-19T12:04:09;15.20;;;12.27;;
9080;SDS011;13509;50.760;6.080;2022-08-19T12:06:39;16.47;;;12.47;;
9080;SDS011;13509;50.760;6.080;2022-08-19T12:09:09;16.33;;;11.27;;
9080;SDS011;13509;50.760;6.080;2022-08-19T12:11:38;12.63;;;9.27;;
9080;SDS011;13509;50.760;6.080;2022-08-19T12:14:08;18.60;;;10.27;;
9080;SDS011;13509;50.760;6.080;2022-08-19T12:16:40;11.43;;;9.40;;
9080;SDS011;13509;50.760;6.080;2022-08-19T12:19:17;10.17;;;8.33;;
9080;SDS011;13509;50.760;6.080;2022-08-19T12:21:48;13.67;;;7.67;;
9080;SDS011;13509;50.760;6.080;2022-08-19T12:24:17;7.80;;;6.20;;
9080;SDS011;13509;50.760;6.080;2022-08-19T12:26:49;10.57;;;7.23;;
9080;SDS011;13509;50.760;6.080;2022-08-19T12:29:19;9.47;;;6.40;;
9080;SDS011;13509;50.760;6.080;2022-08-19T12:31:49;8.23;;;7.27;;
9080;SDS011;13509;50.760;6.080;2022-08-19T12:34:17;7.67;;;5.83;;
9080;SDS011;13509;50.760;6.080;2022-08-19T12:36:46;7.67;;;6.03;;
9080;SDS011;13509;50.760;6.080;2022-08-19T12:39:15;8.77;;;4.63;;
9080;SDS011;13509;50.760;6.080;2022-08-19T12:41:45;6.13;;;3.73;;
9080;SDS011;13509;50.760;6.080;2022-08-19T12:44:20;6.73;;;4.40;;
9080;SDS011;13509;50.760;6.080;2022-08-19T12:46:54;6.63;;;3.70;;
9080;SDS011;13509;50.760;6.080;2022-08-19T12:49:23;4.90;;;3.57;;
9080;SDS011;13509;50.760;6.080;2022-08-19T12:52:11;5.53;;;3.47;;
9080;SDS011;13509;50.760;6.080;2022-08-19T12:54:47;5.43;;;3.73;;
9080;SDS011;13509;50.760;6.080;2022-08-19T12:57:21;3.67;;;3.20;;
9080;SDS011;13509;50.760;6.080;2022-08-19T12:59:57;5.97;;;3.10;;
9080;SDS011;13509;50.760;6.080;2022-08-19T13:02:26;6.20;;;3.00;;
9080;SDS011;13509;50.760;6.080;2022-08-19T13:04:54;7.70;;;2.90;;
9080;SDS011;13509;50.760;6.080;2022-08-19T13:07:23;8.03;;;3.37;;
9080;SDS011;13509;50.760;6.080;2022-08-19T13:09:52;6.70;;;3.07;;
9080;SDS011;13509;50.760;6.080;2022-08-19T13:12:21;5.47;;;3.17;;
9080;SDS011;13509;50.760;6.080;2022-08-19T13:14:52;5.50;;;3.23;;
9080;SDS011;13509;50.760;6.080;2022-08-19T13:17:20;2.90;;;2.67;;
9080;SDS011;13509;50.760;6.080;2022-08-19T13:19:49;5.10;;;2.63;;
9080;SDS011;13509;50.760;6.080;2022-08-19T13:22:17;3.07;;;2.27;;
9080;SDS011;13509;50.760;6.080;2022-08-19T13:24:45;2.67;;;2.00;;
9080;SDS011;13509;50.760;6.080;2022-08-19T13:27:14;3.40;;;2.27;;
9080;SDS011;13509;50.760;6.080;2022-08-19T13:29:44;2.57;;;2.10;;
9080;SDS011;13509;50.760;6.080;2022-08-19T13:32:30;5.70;;;2.13;;
9080;SDS011;13509;50.760;6.080;2022-08-19T13:35:14;2.80;;;1.90;;
9080;SDS011;13509;50.760;6.080;2022-08-19T13:37:42;4.17;;;2.23;;
9080;SDS011;13509;50.760;6.080;2022-08-19T13:40:13;3.83;;;2.07;;
9080;SDS011;13509;50.760;6.080;2022-08-19T13:42:45;2.93;;;2.00;;
9080;SDS011;13509;50.760;6.080;2022-08-19T13:45:15;3.30;;;1.77;;
9080;SDS011;13509;50.760;6.080;2022-08-19T13:47:44;2.50;;;2.30;;
9080;SDS011;13509;50.760;6.080;2022-08-19T13:50:14;2.10;;;1.90;;
9080;SDS011;13509;50.760;6.080;2022-08-19T13:52:43;1.80;;;1.70;;
9080;SDS011;13509;50.760;6.080;2022-08-19T13:55:11;5.10;;;2.20;;
9080;SDS011;13509;50.760;6.080;2022-08-19T13:57:49;2.43;;;1.97;;
9080;SDS011;13509;50.760;6.080;2022-08-19T14:00:20;3.80;;;1.97;;
9080;SDS011;13509;50.760;6.080;2022-08-19T14:02:49;5.30;;;2.30;;
9080;SDS011;13509;50.760;6.080;2022-08-19T14:05:18;2.50;;;2.30;;
9080;SDS011;13509;50.760;6.080;2022-08-19T14:07:47;3.07;;;2.77;;
9080;SDS011;13509;50.760;6.080;2022-08-19T14:10:15;6.03;;;3.00;;
9080;SDS011;13509;50.760;6.080;2022-08-19T14:12:43;3.37;;;2.47;;
9080;SDS011;13509;50.760;6.080;2022-08-19T14:15:12;5.03;;;2.60;;
9080;SDS011;13509;50.760;6.080;2022-08-19T14:17:43;3.90;;;3.03;;
9080;SDS011;13509;50.760;6.080;2022-08-19T14:20:13;3.73;;;2.43;;
9080;SDS011;13509;50.760;6.080;2022-08-19T14:22:44;3.37;;;2.57;;
9080;SDS011;13509;50.760;6.080;2022-08-19T14:25:13;4.87;;;2.53;;
9080;SDS011;13509;50.760;6.080;2022-08-19T14:27:42;5.63;;;2.53;;
9080;SDS011;13509;50.760;6.080;2022-08-19T14:30:11;5.67;;;2.73;;
9080;SDS011;13509;50.760;6.080;2022-08-19T14:32:40;3.20;;;2.50;;
9080;SDS011;13509;50.760;6.080;2022-08-19T14:35:12;6.13;;;2.60;;
9080;SDS011;13509;50.760;6.080;2022-08-19T14:37:43;4.03;;;2.70;;
9080;SDS011;13509;50.760;6.080;2022-08-19T14:40:13;4.30;;;2.77;;
9080;SDS011;13509;50.760;6.080;2022-08-19T14:42:42;4.53;;;2.60;;
9080;SDS011;13509;50.760;6.080;2022-08-19T14:45:10;4.53;;;3.03;;
9080;SDS011;13509;50.760;6.080;2022-08-19T14:47:39;4.73;;;2.83;;
9080;SDS011;13509;50.760;6.080;2022-08-19T14:50:11;4.40;;;3.20;;
9080;SDS011;13509;50.760;6.080;2022-08-19T14:52:43;3.47;;;2.70;;
9080;SDS011;13509;50.760;6.080;2022-08-19T14:55:12;6.03;;;2.83;;
9080;SDS011;13509;50.760;6.080;2022-08-19T14:57:40;6.27;;;3.10;;
9080;SDS011;13509;50.760;6.080;2022-08-19T15:00:10;4.63;;;2.70;;
9080;SDS011;13509;50.760;6.080;2022-08-19T15:02:39;3.00;;;2.70;;
9080;SDS011;13509;50.760;6.080;2022-08-19T15:05:07;3.93;;;2.50;;
9080;SDS011;13509;50.760;6.080;2022-08-19T15:07:37;4.73;;;2.67;;
9080;SDS011;13509;50.760;6.080;2022-08-19T15:10:06;3.20;;;2.37;;
9080;SDS011;13509;50.760;6.080;2022-08-19T15:12:35;5.53;;;2.73;;
9080;SDS011;13509;50.760;6.080;2022-08-19T15:15:06;5.83;;;3.20;;
9080;SDS011;13509;50.760;6.080;2022-08-19T15:17:35;4.60;;;2.30;;
9080;SDS011;13509;50.760;6.080;2022-08-19T15:20:12;5.87;;;3.00;;
9080;SDS011;13509;50.760;6.080;2022-08-19T15:22:42;5.53;;;2.67;;
9080;SDS011;13509;50.760;6.080;2022-08-19T15:25:11;3.30;;;3.00;;
9080;SDS011;13509;50.760;6.080;2022-08-19T15:27:40;5.07;;;3.27;;
9080;SDS011;13509;50.760;6.080;2022-08-19T15:30:09;7.57;;;3.03;;
9080;SDS011;13509;50.760;6.080;2022-08-19T15:32:38;5.40;;;3.67;;
9080;SDS011;13509;50.760;6.080;2022-08-19T15:35:07;4.27;;;3.33;;
9080;SDS011;13509;50.760;6.080;2022-08-19T15:37:35;3.87;;;2.90;;
9080;SDS011;13509;50.760;6.080;2022-08-19T15:40:05;4.03;;;3.57;;
9080;SDS011;13509;50.760;6.080;2022-08-19T15:42:34;4.33;;;3.03;;
9080;SDS011;13509;50.760;6.080;2022-08-19T15:45:03;3.57;;;3.10;;
9080;SDS011;13509;50.760;6.080;2022-08-19T15:47:32;5.47;;;3.03;;
9080;SDS011;13509;50.760;6.080;2022-08-19T15:50:03;3.30;;;2.97;;
9080;SDS011;13509;50.760;6.080;2022-08-19T15:52:36;4.53;;;3.10;;